createdAt,value
2022-09-20T00:01:33.330Z,100448.41
2022-09-20T00:04:05.883Z,100439.97
2022-09-20T00:06:34.647Z,100429.13
2022-09-20T00:09:03.235Z,100438.03
2022-09-20T00:11:33.433Z,100442.34
2022-09-20T00:14:02.911Z,100446.47
2022-09-20T00:16:34.601Z,100448.28
2022-09-20T00:19:04.646Z,100465.28
2022-09-20T00:21:34.276Z,100463.44
2022-09-20T00:24:02.047Z,100458.25
2022-09-20T00:26:29.901Z,100461.84
2022-09-20T00:28:58.926Z,100466.59
2022-09-20T00:31:27.730Z,100445.44
2022-09-20T00:34:17.514Z,100458.22
2022-09-20T00:36:45.455Z,100434.09
2022-09-20T00:39:15.724Z,100464.38
2022-09-20T00:41:43.621Z,100461.75
2022-09-20T00:44:54.030Z,100473.16
2022-09-20T00:47:28.292Z,100461.09
2022-09-20T00:50:20.318Z,100453.00
2022-09-20T00:52:53.439Z,100451.34
2022-09-20T00:55:21.856Z,100449.38
2022-09-20T00:57:49.608Z,100446.56
2022-09-20T01:00:17.506Z,100454.34
2022-09-20T01:02:51.394Z,100451.19
2022-09-20T01:05:19.954Z,100433.84
2022-09-20T01:07:49.611Z,100428.72
2022-09-20T01:10:17.081Z,100432.50
2022-09-20T01:12:46.394Z,100433.41
2022-09-20T01:15:15.988Z,100439.03
2022-09-20T01:17:48.303Z,100438.66
2022-09-20T01:20:29.674Z,100436.00
2022-09-20T01:23:07.597Z,100426.88
2022-09-20T01:26:12.757Z,100434.50
2022-09-20T01:28:45.076Z,100408.47
2022-09-20T01:31:32.079Z,100420.06
2022-09-20T01:34:04.820Z,100436.75
2022-09-20T01:36:38.496Z,100438.94
2022-09-20T01:39:12.045Z,100430.50
2022-09-20T01:41:58.495Z,100436.59
2022-09-20T01:44:52.959Z,100432.50
2022-09-20T01:47:39.122Z,100430.84
2022-09-20T01:50:25.309Z,100428.38
2022-09-20T01:53:24.849Z,100410.38
2022-09-20T01:56:18.740Z,100438.13
2022-09-20T01:59:25.075Z,100434.94
2022-09-20T02:01:55.510Z,100439.63
2022-09-20T02:04:40.599Z,100435.66
2022-09-20T02:07:13.730Z,100431.84
2022-09-20T02:09:57.126Z,100427.72
2022-09-20T02:12:34.016Z,100430.53
2022-09-20T02:15:15.246Z,100431.22
2022-09-20T02:18:08.949Z,100433.53
2022-09-20T02:20:59.159Z,100423.09
2022-09-20T02:23:53.331Z,100429.53
2022-09-20T02:26:36.588Z,100431.22
2022-09-20T02:29:09.592Z,100431.88
2022-09-20T02:32:01.191Z,100434.69
2022-09-20T02:34:37.109Z,100418.69
2022-09-20T02:37:59.105Z,100417.16
2022-09-20T02:40:52.793Z,100412.09
2022-09-20T02:43:57.434Z,100416.72
2022-09-20T02:46:45.647Z,100404.88
2022-09-20T02:49:47.347Z,100412.28
2022-09-20T02:52:47.783Z,100412.28
2022-09-20T02:55:35.183Z,100408.63
2022-09-20T02:58:21.621Z,100409.34
2022-09-20T03:00:56.989Z,100401.41
2022-09-20T03:03:58.518Z,100401.06
2022-09-20T03:06:58.115Z,100412.59
2022-09-20T03:10:02.936Z,100410.13
2022-09-20T03:12:40.700Z,100411.44
2022-09-20T03:15:45.760Z,100414.09
2022-09-20T03:18:20.694Z,100410.78
2022-09-20T03:20:54.276Z,100408.47
2022-09-20T03:23:41.033Z,100419.34
2022-09-20T03:26:24.153Z,100407.88
2022-09-20T03:29:02.908Z,100422.53
2022-09-20T03:31:59.554Z,100417.78
2022-09-20T03:34:39.951Z,100426.75
2022-09-20T03:37:38.339Z,100419.28
2022-09-20T03:40:34.673Z,100420.13
2022-09-20T03:43:27.481Z,100419.69
2022-09-20T03:46:17.543Z,100419.63
2022-09-20T03:49:19.781Z,100433.50
2022-09-20T03:51:59.151Z,100420.50
2022-09-20T03:54:57.570Z,100434.94
2022-09-20T03:57:45.959Z,100434.00
2022-09-20T04:00:30.930Z,100430.63
2022-09-20T04:03:29.824Z,100425.75
2022-09-20T04:06:39.235Z,100437.97
2022-09-20T04:09:42.088Z,100436.66
2022-09-20T04:12:18.381Z,100447.09
2022-09-20T04:15:06.040Z,100449.38
2022-09-20T04:18:02.832Z,100438.97
2022-09-20T04:20:52.313Z,100454.03
2022-09-20T04:23:38.233Z,100451.50
2022-09-20T04:26:08.615Z,100441.78
2022-09-20T04:28:48.152Z,100443.75
2022-09-20T04:31:31.200Z,100442.72
2022-09-20T04:34:01.037Z,100444.56
2022-09-20T04:36:51.335Z,100448.47
2022-09-20T04:39:49.843Z,100437.50
2022-09-20T04:42:35.749Z,100433.50
2022-09-20T04:45:12.789Z,100436.59
2022-09-20T04:48:38.287Z,100423.13
2022-09-20T04:51:29.777Z,100433.16
2022-09-20T04:54:21.660Z,100431.44
2022-09-20T04:57:26.329Z,100426.84
2022-09-20T05:00:13.981Z,100423.69
2022-09-20T05:02:59.923Z,100435.38
2022-09-20T05:05:50.523Z,100416.81
2022-09-20T05:08:21.291Z,100433.38
2022-09-20T05:11:00.514Z,100435.75
2022-09-20T05:13:58.821Z,100432.84
2022-09-20T05:16:48.430Z,100436.75
2022-09-20T05:19:24.955Z,100428.91
2022-09-20T05:21:59.839Z,100431.66
2022-09-20T05:24:49.741Z,100432.41
2022-09-20T05:27:46.445Z,100432.78
2022-09-20T05:30:49.757Z,100436.69
2022-09-20T05:33:33.599Z,100437.25
2022-09-20T05:36:32.316Z,100442.09
2022-09-20T05:39:03.560Z,100435.28
2022-09-20T05:41:57.643Z,100439.16
2022-09-20T05:44:49.410Z,100429.19
2022-09-20T05:47:26.520Z,100431.31
2022-09-20T05:50:05.740Z,100439.03
2022-09-20T05:53:04.439Z,100438.81
2022-09-20T05:55:55.125Z,100447.03
2022-09-20T05:58:28.449Z,100444.19
2022-09-20T06:01:24.786Z,100446.75
2022-09-20T06:04:12.934Z,100446.41
2022-09-20T06:07:09.540Z,100447.88
2022-09-20T06:10:16.693Z,100447.59
2022-09-20T06:13:06.695Z,100445.03
2022-09-20T06:15:45.129Z,100444.16
2022-09-20T06:18:44.609Z,100443.53
2022-09-20T06:21:37.061Z,100449.41
2022-09-20T06:24:13.397Z,100443.50
2022-09-20T06:26:44.786Z,100447.25
2022-09-20T06:29:14.417Z,100452.47
2022-09-20T06:31:41.622Z,100440.09
2022-09-20T06:34:15.870Z,100448.94
2022-09-20T06:37:10.120Z,100440.63
2022-09-20T06:40:08.521Z,100439.72
2022-09-20T06:42:36.314Z,100429.22
2022-09-20T06:45:03.736Z,100443.94
2022-09-20T06:47:34.663Z,100432.97
2022-09-20T06:50:04.915Z,100428.88
2022-09-20T06:52:33.306Z,100412.00
2022-09-20T06:55:00.568Z,100421.66
2022-09-20T06:57:36.156Z,100428.44
2022-09-20T07:00:06.509Z,100414.44
2022-09-20T07:02:34.130Z,100410.91
2022-09-20T07:05:01.373Z,100412.25
2022-09-20T07:07:30.523Z,100399.75
2022-09-20T07:09:58.656Z,100412.16
2022-09-20T07:12:25.861Z,100404.56
2022-09-20T07:14:53.261Z,100399.06
2022-09-20T07:17:22.281Z,100399.16
2022-09-20T07:19:49.424Z,100397.72
2022-09-20T07:22:16.942Z,100386.84
2022-09-20T07:24:45.073Z,100385.97
2022-09-20T07:27:13.242Z,100397.44
2022-09-20T07:29:41.384Z,100398.34
2022-09-20T07:32:08.907Z,100389.03
2022-09-20T07:34:38.834Z,100384.41
2022-09-20T07:37:06.007Z,100384.78
2022-09-20T07:39:33.162Z,100373.28
2022-09-20T07:42:02.118Z,100380.69
2022-09-20T07:44:29.638Z,100375.31
2022-09-20T07:46:59.488Z,100383.16
2022-09-20T07:49:31.725Z,100380.38
2022-09-20T07:51:59.189Z,100370.03
2022-09-20T07:54:30.408Z,100356.66
2022-09-20T07:56:57.613Z,100357.03
2022-09-20T07:59:26.160Z,100349.19
2022-09-20T08:01:53.590Z,100348.81
2022-09-20T08:04:20.994Z,100339.25
2022-09-20T08:06:48.150Z,100348.00
2022-09-20T08:09:15.743Z,100339.41
2022-09-20T08:11:43.951Z,100338.78
2022-09-20T08:14:16.124Z,100335.78
2022-09-20T08:16:47.880Z,100320.41
2022-09-20T08:19:20.991Z,100328.84
2022-09-20T08:21:51.348Z,100307.72
2022-09-20T08:24:21.011Z,100320.31
2022-09-20T08:26:48.984Z,100328.53
2022-09-20T08:29:16.482Z,100314.63
2022-09-20T08:31:45.069Z,100317.34
2022-09-20T08:34:17.784Z,100308.53
2022-09-20T08:36:47.338Z,100319.97
2022-09-20T08:42:23.122Z,100282.69
2022-09-20T08:44:59.700Z,100302.31
2022-09-20T08:47:34.053Z,100294.97
2022-09-20T08:50:16.819Z,100292.47
2022-09-20T08:52:49.446Z,100302.69
2022-09-20T08:55:39.975Z,100291.88
2022-09-20T08:58:14.769Z,100281.34
2022-09-20T09:00:44.620Z,100270.88
2022-09-20T09:03:17.358Z,100274.28
2022-09-20T09:05:47.312Z,100281.72
2022-09-20T09:08:19.040Z,100277.03
2022-09-20T09:10:54.949Z,100272.22
2022-09-20T09:13:25.121Z,100277.50
2022-09-20T09:15:58.547Z,100268.25
2022-09-20T09:18:33.354Z,100253.56
2022-09-20T09:21:04.315Z,100256.78
2022-09-20T09:23:39.872Z,100260.44
2022-09-20T09:26:16.185Z,100262.91
2022-09-20T09:28:44.230Z,100248.72
2022-09-20T09:31:23.759Z,100270.06
2022-09-20T09:33:51.713Z,100257.47
2022-09-20T09:36:25.864Z,100259.50
2022-09-20T09:39:23.575Z,100250.66
2022-09-20T09:41:51.273Z,100222.88
2022-09-20T09:44:23.344Z,100241.31
2022-09-20T09:46:52.810Z,100243.34
2022-09-20T09:49:36.673Z,100231.53
2022-09-20T09:52:15.900Z,100231.09
2022-09-20T09:54:49.524Z,100242.03
2022-09-20T09:57:34.885Z,100231.53
2022-09-20T10:00:21.869Z,100227.09
2022-09-20T10:03:11.344Z,100228.88
2022-09-20T10:05:53.962Z,100225.59
2022-09-20T10:08:38.579Z,100222.38
2022-09-20T10:11:28.953Z,100214.63
2022-09-20T10:13:56.209Z,100218.78
2022-09-20T10:16:38.600Z,100215.25
2022-09-20T10:19:08.923Z,100221.84
2022-09-20T10:22:17.934Z,100215.41
2022-09-20T10:25:27.136Z,100200.75
2022-09-20T10:28:01.301Z,100190.66
2022-09-20T10:31:01.762Z,100190.38
2022-09-20T10:33:37.800Z,100181.88
2022-09-20T10:36:25.854Z,100181.44
2022-09-20T10:39:03.883Z,100177.41
2022-09-20T10:42:15.420Z,100180.69
2022-09-20T10:45:04.404Z,100185.59
2022-09-20T10:47:51.592Z,100183.56
2022-09-20T10:50:36.779Z,100171.34
2022-09-20T10:53:13.314Z,100181.50
2022-09-20T10:56:00.806Z,100154.63
2022-09-20T10:58:34.108Z,100170.94
2022-09-20T11:01:21.366Z,100165.25
2022-09-20T11:04:16.570Z,100158.34
2022-09-20T11:06:44.273Z,100157.13
2022-09-20T11:09:17.963Z,100148.56
2022-09-20T11:11:54.223Z,100127.75
2022-09-20T11:14:32.777Z,100143.66
2022-09-20T11:17:35.549Z,100137.53
2022-09-20T11:20:23.901Z,100149.78
2022-09-20T11:23:00.225Z,100131.41
2022-09-20T11:25:51.882Z,100117.16
2022-09-20T11:28:27.985Z,100137.56
2022-09-20T11:31:07.231Z,100127.00
2022-09-20T11:33:56.623Z,100135.19
2022-09-20T11:36:57.828Z,100117.22
2022-09-20T11:39:31.008Z,100127.00
2022-09-20T11:42:01.790Z,100126.19
2022-09-20T11:44:29.421Z,100127.00
2022-09-20T11:47:36.604Z,100126.59
2022-09-20T11:50:36.487Z,100133.53
2022-09-20T11:53:03.868Z,100130.25
2022-09-20T11:56:02.190Z,100119.63
2022-09-20T11:58:29.517Z,100113.91
2022-09-20T12:01:00.145Z,100117.97
2022-09-20T12:03:40.251Z,100129.78
2022-09-20T12:06:33.399Z,100144.00
2022-09-20T12:09:24.992Z,100139.94
2022-09-20T12:11:53.184Z,100138.69
2022-09-20T12:14:32.610Z,100132.50
2022-09-20T12:17:02.323Z,100135.38
2022-09-20T12:19:33.058Z,100140.63
2022-09-20T12:22:00.278Z,100136.16
2022-09-20T12:24:45.300Z,100119.00
2022-09-20T12:27:41.599Z,100130.06
2022-09-20T12:30:22.652Z,100117.78
2022-09-20T12:32:57.416Z,100130.03
2022-09-20T12:35:37.278Z,100127.19
2022-09-20T12:38:28.066Z,100120.22
2022-09-20T12:41:17.021Z,100111.31
2022-09-20T12:44:05.180Z,100121.38
2022-09-20T12:46:37.097Z,100115.94
2022-09-20T12:49:51.655Z,100124.06
2022-09-20T12:52:54.067Z,100117.56
2022-09-20T12:55:31.353Z,100114.59
2022-09-20T12:58:18.616Z,100105.59
2022-09-20T13:01:00.135Z,100114.16
2022-09-20T13:03:37.599Z,100116.94
2022-09-20T13:06:09.483Z,100117.28
2022-09-20T13:08:48.442Z,100103.84
2022-09-20T13:11:24.711Z,100118.94
2022-09-20T13:13:59.551Z,100124.19
2022-09-20T13:16:39.230Z,100120.91
2022-09-20T13:19:23.307Z,100125.72
2022-09-20T13:21:57.125Z,100140.41
2022-09-20T13:24:26.178Z,100112.25
2022-09-20T13:26:55.733Z,100142.53
2022-09-20T13:29:45.077Z,100143.41
2022-09-20T13:32:18.579Z,100149.88
2022-09-20T13:34:46.053Z,100144.13
2022-09-20T13:37:23.941Z,100134.75
2022-09-20T13:39:55.475Z,100132.22
2022-09-20T13:42:23.317Z,100133.31
2022-09-20T13:44:51.111Z,100115.38
2022-09-20T13:47:30.277Z,100128.00
2022-09-20T13:50:31.896Z,100133.31
2022-09-20T13:53:04.001Z,100128.31
2022-09-20T13:55:38.843Z,100119.31
2022-09-20T13:58:21.587Z,100126.69
2022-09-20T14:01:19.762Z,100134.81
2022-09-20T14:03:48.653Z,100124.53
2022-09-20T14:06:16.567Z,100109.44
2022-09-20T14:08:51.464Z,100113.53
2022-09-20T14:11:26.082Z,100108.19
2022-09-20T14:13:55.666Z,100099.19
2022-09-20T14:16:34.190Z,100119.94
2022-09-20T14:19:04.017Z,100102.03
2022-09-20T14:21:36.865Z,100104.91
2022-09-20T14:24:16.666Z,100112.28
2022-09-20T14:27:02.729Z,100115.06
2022-09-20T14:29:44.931Z,100119.59
2022-09-20T14:32:18.354Z,100116.72
2022-09-20T14:34:59.403Z,100117.91
2022-09-20T14:37:34.237Z,100108.53
2022-09-20T14:40:07.394Z,100117.41
2022-09-20T14:42:43.939Z,100112.44
2022-09-20T14:45:25.667Z,100097.75
2022-09-20T14:48:16.144Z,100114.91
2022-09-20T14:50:47.326Z,100116.47
2022-09-20T14:53:29.701Z,100124.25
2022-09-20T14:56:06.608Z,100131.25
2022-09-20T14:58:55.082Z,100121.47
2022-09-20T15:01:26.105Z,100123.13
2022-09-20T15:03:54.107Z,100115.66
2022-09-20T15:06:21.451Z,100120.53
2022-09-20T15:08:48.757Z,100123.31
2022-09-20T15:11:20.864Z,100114.41
2022-09-20T15:13:47.987Z,100121.78
2022-09-20T15:16:18.917Z,100125.34
2022-09-20T15:18:46.357Z,100123.63
2022-09-20T15:21:13.495Z,100132.28
2022-09-20T15:23:41.194Z,100116.88
2022-09-20T15:26:10.877Z,100117.22
2022-09-20T15:28:38.289Z,100124.56
2022-09-20T15:31:05.605Z,100136.38
2022-09-20T15:33:33.580Z,100130.34
2022-09-20T15:36:02.604Z,100133.97
2022-09-20T15:38:30.180Z,100126.31
2022-09-20T15:41:01.005Z,100126.81
2022-09-20T15:43:31.386Z,100127.31
2022-09-20T15:46:19.961Z,100137.00
2022-09-20T15:48:47.551Z,100132.94
2022-09-20T15:51:15.679Z,100143.53
2022-09-20T15:54:05.569Z,100129.69
2022-09-20T15:56:36.004Z,100143.88
2022-09-20T15:59:07.972Z,100152.44
2022-09-20T16:01:44.322Z,100148.78
2022-09-20T16:04:18.826Z,100143.13
2022-09-20T16:06:49.635Z,100135.38
2022-09-20T16:09:18.345Z,100128.84
2022-09-20T16:11:49.311Z,100118.91
2022-09-20T16:14:16.732Z,100112.41
2022-09-20T16:16:44.053Z,100113.16
2022-09-20T16:19:17.897Z,100143.25
2022-09-20T16:21:58.904Z,100148.53
2022-09-20T16:24:33.247Z,100161.19
2022-09-20T16:27:02.044Z,100153.91
2022-09-20T16:29:30.525Z,100147.38
2022-09-20T16:31:58.969Z,100123.22
2022-09-20T16:34:34.930Z,100151.38
2022-09-20T16:37:06.552Z,100136.31
2022-09-20T16:39:34.592Z,100127.03
2022-09-20T16:42:05.297Z,100132.63
2022-09-20T16:44:34.478Z,100133.63
2022-09-20T16:47:02.714Z,100134.03
2022-09-20T16:49:30.570Z,100128.28
2022-09-20T16:51:57.733Z,100137.97
2022-09-20T16:54:29.693Z,100130.88
2022-09-20T16:56:59.838Z,100119.47
2022-09-20T16:59:27.576Z,100109.09
2022-09-20T17:01:57.924Z,100117.34
2022-09-20T17:04:25.154Z,100119.88
2022-09-20T17:06:52.677Z,100124.78
2022-09-20T17:09:19.892Z,100126.41
2022-09-20T17:11:52.822Z,100127.72
2022-09-20T17:14:21.173Z,100135.84
2022-09-20T17:16:49.431Z,100124.38
2022-09-20T17:19:19.093Z,100120.72
2022-09-20T17:21:50.506Z,100136.13
2022-09-20T17:24:22.860Z,100129.09
2022-09-20T17:26:51.239Z,100129.13
2022-09-20T17:29:19.478Z,100117.72
2022-09-20T17:31:55.679Z,100100.59
2022-09-20T17:34:28.276Z,100090.81
2022-09-20T17:36:55.708Z,100113.34
2022-09-20T17:39:23.382Z,100116.88
2022-09-20T17:41:51.308Z,100114.81
2022-09-20T17:44:18.781Z,100116.00
2022-09-20T17:46:52.036Z,100127.78
2022-09-20T17:49:22.611Z,100106.72
2022-09-20T17:51:53.216Z,100120.16
2022-09-20T17:54:21.104Z,100120.59
2022-09-20T17:56:52.623Z,100124.56
2022-09-20T17:59:20.830Z,100123.53
2022-09-20T18:01:50.756Z,100137.66
2022-09-20T18:04:20.997Z,100125.59
2022-09-20T18:06:50.740Z,100114.31
2022-09-20T18:09:19.935Z,100120.84
2022-09-20T18:11:53.087Z,100112.34
2022-09-20T18:14:27.753Z,100107.25
2022-09-20T18:16:58.295Z,100114.69
2022-09-20T18:19:33.161Z,100116.75
2022-09-20T18:22:03.026Z,100118.88
2022-09-20T18:24:31.056Z,100110.38
2022-09-20T18:26:58.190Z,100109.25
2022-09-20T18:29:28.219Z,100114.03
2022-09-20T18:31:59.560Z,100107.53
2022-09-20T18:34:31.393Z,100108.81
2022-09-20T18:37:00.479Z,100098.59
2022-09-20T18:39:32.657Z,100084.81
2022-09-20T18:42:02.874Z,100081.13
2022-09-20T18:44:34.260Z,100061.59
2022-09-20T18:47:03.996Z,100075.53
2022-09-20T18:49:32.335Z,100075.03
2022-09-20T18:51:59.545Z,100065.06
2022-09-20T18:54:30.300Z,100063.97
2022-09-20T18:56:58.183Z,100069.50
2022-09-20T18:59:27.483Z,100077.06
2022-09-20T19:02:32.569Z,100076.59
2022-09-20T19:05:18.021Z,100082.50
2022-09-20T19:08:05.468Z,100068.72
2022-09-20T19:10:52.647Z,100076.84
2022-09-20T19:13:46.886Z,100074.97
2022-09-20T19:16:33.485Z,100076.03
2022-09-20T19:19:09.747Z,100070.88
2022-09-20T19:21:59.189Z,100064.38
2022-09-20T19:24:45.942Z,100064.00
2022-09-20T19:27:14.486Z,100066.72
2022-09-20T19:29:42.210Z,100063.88
2022-09-20T19:32:21.296Z,100056.13
2022-09-20T19:34:55.419Z,100063.63
2022-09-20T19:37:41.530Z,100077.66
2022-09-20T19:40:33.502Z,100066.09
2022-09-20T19:43:16.307Z,100072.41
2022-09-20T19:45:50.377Z,100075.63
2022-09-20T19:48:28.571Z,100066.34
2022-09-20T19:50:57.532Z,100064.34
2022-09-20T19:53:27.761Z,100070.88
2022-09-20T19:56:26.533Z,100063.63
2022-09-20T19:58:56.432Z,100054.19
2022-09-20T20:01:25.614Z,100057.03
2022-09-20T20:03:54.763Z,100046.44
2022-09-20T20:06:21.894Z,100058.47
2022-09-20T20:09:05.460Z,100068.59
2022-09-20T20:11:38.573Z,100064.69
2022-09-20T20:14:33.571Z,100060.72
2022-09-20T20:17:24.135Z,100073.88
2022-09-20T20:20:06.897Z,100063.53
2022-09-20T20:23:03.448Z,100066.22
2022-09-20T20:25:48.888Z,100065.34
2022-09-20T20:28:16.110Z,100056.38
2022-09-20T20:30:43.694Z,100053.97
2022-09-20T20:33:15.942Z,100062.78
2022-09-20T20:35:43.420Z,100044.94
2022-09-20T20:38:11.897Z,100044.22
2022-09-20T20:40:40.396Z,100043.22
2022-09-20T20:43:09.417Z,100041.00
2022-09-20T20:45:37.183Z,100036.91
2022-09-20T20:48:04.748Z,100032.47
2022-09-20T20:50:33.356Z,100039.13
2022-09-20T20:53:00.473Z,100031.50
2022-09-20T20:55:27.970Z,100032.19
2022-09-20T20:57:58.465Z,100024.94
2022-09-20T21:00:27.249Z,100027.84
2022-09-20T21:03:01.340Z,100020.47
2022-09-20T21:05:29.488Z,100025.13
2022-09-20T21:07:58.110Z,100030.78
2022-09-20T21:10:25.503Z,100024.88
2022-09-20T21:12:54.957Z,100037.22
2022-09-20T21:15:28.550Z,100028.66
2022-09-20T21:17:56.217Z,100014.47
2022-09-20T21:20:24.323Z,100040.38
2022-09-20T21:22:52.140Z,100037.47
2022-09-20T21:25:19.933Z,100040.22
2022-09-20T21:27:47.372Z,100036.72
2022-09-20T21:30:15.546Z,100039.56
2022-09-20T21:32:42.967Z,100054.53
2022-09-20T21:35:10.714Z,100041.66
2022-09-20T21:37:38.346Z,100038.81
2022-09-20T21:40:06.387Z,100056.88
2022-09-20T21:42:33.956Z,100049.47
2022-09-20T21:45:02.358Z,100059.47
2022-09-20T21:47:30.470Z,100053.22
2022-09-20T21:49:58.196Z,100050.88
2022-09-20T21:52:26.341Z,100051.25
2022-09-20T21:54:53.973Z,100039.94
2022-09-20T21:57:21.794Z,100045.09
2022-09-20T21:59:49.452Z,100048.00
2022-09-20T22:02:17.281Z,100050.06
2022-09-20T22:04:44.750Z,100042.53
2022-09-20T22:07:12.536Z,100041.72
2022-09-20T22:09:40.369Z,100044.63
2022-09-20T22:12:07.870Z,100042.84
2022-09-20T22:14:39.648Z,100050.66
2022-09-20T22:17:07.440Z,100048.72
2022-09-20T22:19:34.850Z,100039.28
2022-09-20T22:22:02.882Z,100026.16
2022-09-20T22:24:30.520Z,100027.63
2022-09-20T22:26:57.988Z,100029.13
2022-09-20T22:29:25.905Z,100024.56
2022-09-20T22:31:53.494Z,100010.13
2022-09-20T22:34:22.633Z,100034.81
2022-09-20T22:36:50.714Z,100030.63
2022-09-20T22:39:18.157Z,100042.16
2022-09-20T22:41:48.239Z,100026.34
2022-09-20T22:44:16.148Z,100037.78
2022-09-20T22:46:43.644Z,100028.09
2022-09-20T22:49:14.142Z,100025.25
2022-09-20T22:51:41.821Z,100038.81
2022-09-20T22:54:11.411Z,100040.38
2022-09-20T22:56:41.648Z,100026.59
2022-09-20T22:59:12.127Z,100031.81
2022-09-20T23:01:45.503Z,100035.22
2022-09-20T23:04:15.423Z,100025.53
2022-09-20T23:06:48.152Z,100025.97
2022-09-20T23:09:18.145Z,100038.94
2022-09-20T23:11:46.479Z,100042.97
2022-09-20T23:14:17.668Z,100039.25
2022-09-20T23:16:46.143Z,100033.72
2022-09-20T23:19:18.591Z,100036.34
2022-09-20T23:21:46.401Z,100032.56
2022-09-20T23:24:16.754Z,100031.81
2022-09-20T23:26:45.138Z,100033.59
2022-09-20T23:29:15.627Z,100031.13
2022-09-20T23:31:46.397Z,100027.91
2022-09-20T23:34:16.637Z,100034.72
2022-09-20T23:36:45.334Z,100016.53
2022-09-20T23:39:13.561Z,100017.72
2022-09-20T23:41:42.651Z,100016.47
2022-09-20T23:44:11.719Z,100018.16
2022-09-20T23:46:39.314Z,100010.84
2022-09-20T23:49:07.227Z,100016.53
2022-09-20T23:51:35.636Z,100011.59
2022-09-20T23:54:03.983Z,100008.34
2022-09-20T23:56:31.469Z,100003.03
2022-09-20T23:58:58.716Z,99997.38
